Time;durP1;ratioP1;P1;durP2;ratioP2;P2;SDS_P1;SDS_P2;PMS_P1;PMS_P2;Temp;Humidity;BMP_temperature;BMP_pressure;BME280_temperature;BME280_humidity;BME280_pressure;Samples;Min_cycle;Max_cycle;Signal;HPM_P1;HPM_P2
2022/07/25 00:00:07;;;;;;;5.65;4.10;;;;;;;20.51;47.82;100952.53;7393668;19;20022;-66
2022/07/25 00:02:39;;;;;;;3.90;3.55;;;;;;;20.44;47.94;100955.66;7393585;19;20347;-66
2022/07/25 00:05:08;;;;;;;4.55;4.05;;;;;;;20.34;48.08;100947.34;7398639;19;20071;-66
2022/07/25 00:07:36;;;;;;;4.22;3.83;;;;;;;20.32;47.70;100947.44;7399556;19;20035;-66
2022/07/25 00:10:06;;;;;;;3.22;2.92;;;;;;;20.30;47.94;100946.66;7400603;19;20035;-66
2022/07/25 00:12:34;;;;;;;3.65;3.35;;;;;;;20.28;48.25;100945.91;7400542;19;20014;-66
2022/07/25 00:15:03;;;;;;;4.85;3.40;;;;;;;20.27;48.31;100941.53;7397397;19;20031;-66
2022/07/25 00:17:31;;;;;;;4.97;3.60;;;;;;;20.26;47.91;100942.47;7399282;19;20024;-66
2022/07/25 00:20:03;;;;;;;3.90;2.92;;;;;;;20.24;48.08;100938.19;7397446;19;20485;-66
2022/07/25 00:22:31;;;;;;;5.03;3.47;;;;;;;20.23;48.15;100933.81;7400548;19;20452;-66
2022/07/25 00:25:00;;;;;;;5.95;3.50;;;;;;;20.18;48.18;100926.94;7400197;19;20015;-67
2022/07/25 00:27:29;;;;;;;3.00;2.70;;;;;;;20.15;47.97;100923.63;7399132;19;20023;-66
2022/07/25 00:29:57;;;;;;;2.80;2.50;;;;;;;20.13;48.15;100926.38;7399611;19;20010;-66
2022/07/25 00:32:26;;;;;;;3.13;2.60;;;;;;;20.11;47.66;100919.44;7396966;19;20392;-66
2022/07/25 00:34:54;;;;;;;2.85;2.50;;;;;;;20.11;47.75;100920.25;7399716;19;20022;-66
2022/07/25 00:37:25;;;;;;;2.38;2.17;;;;;;;20.10;47.54;100917.69;7398785;19;20035;-66
2022/07/25 00:39:54;;;;;;;3.38;2.63;;;;;;;20.08;47.39;100917.81;7396724;19;20074;-66
2022/07/25 00:42:23;;;;;;;3.10;2.20;;;;;;;20.08;47.54;100915.13;7399206;19;20461;-66
2022/07/25 00:44:52;;;;;;;3.10;2.80;;;;;;;20.08;47.26;100912.47;7399034;19;20014;-66
2022/07/25 00:47:20;;;;;;;3.85;2.33;;;;;;;20.08;47.42;100914.25;7398526;19;20018;-66
2022/07/25 00:49:49;;;;;;;3.58;2.63;;;;;;;20.07;47.58;100904.56;7399344;19;20074;-66
2022/07/25 00:52:17;;;;;;;15.27;4.90;;;;;;;20.05;47.73;100903.81;7398986;19;20078;-66
2022/07/25 00:54:49;;;;;;;9.05;4.10;;;;;;;20.00;48.12;100894.28;7396858;19;20090;-66
2022/07/25 00:57:17;;;;;;;5.55;3.45;;;;;;;19.96;48.52;100889.22;7396846;19;20018;-65
2022/07/25 00:59:46;;;;;;;5.47;2.97;;;;;;;19.92;48.38;100893.03;7398931;19;20036;-66
2022/07/25 01:02:14;;;;;;;3.80;2.88;;;;;;;19.90;48.40;100890.44;7396311;19;20027;-67
2022/07/25 01:04:43;;;;;;;3.45;2.80;;;;;;;19.91;48.69;100888.63;7396670;19;20019;-66
2022/07/25 01:07:11;;;;;;;8.02;2.90;;;;;;;19.89;48.54;100888.75;7398110;19;20022;-65
2022/07/25 01:09:40;;;;;;;3.67;2.50;;;;;;;19.88;48.99;100894.13;7398668;19;20039;-66
2022/07/25 01:12:11;;;;;;;3.50;2.55;;;;;;;19.86;49.06;100884.41;7398273;19;20542;-66
2022/07/25 01:14:40;;;;;;;2.13;1.92;;;;;;;19.84;48.63;100883.66;7396489;19;20038;-66
2022/07/25 01:17:08;;;;;;;2.63;2.17;;;;;;;19.80;48.46;100879.44;7396382;19;20031;-66
2022/07/25 01:19:37;;;;;;;1.90;1.77;;;;;;;19.78;48.70;100881.34;7398526;19;20018;-66
2022/07/25 01:22:08;;;;;;;2.08;1.88;;;;;;;19.77;48.22;100887.59;7396270;19;20014;-66
2022/07/25 01:24:37;;;;;;;2.10;1.90;;;;;;;19.74;48.39;100884.25;7397962;19;20027;-66
2022/07/25 01:27:05;;;;;;;2.13;1.92;;;;;;;19.69;48.08;100877.41;7395610;19;20018;-67
2022/07/25 01:29:34;;;;;;;3.22;2.13;;;;;;;19.68;47.72;100878.34;7398136;19;20019;-66
2022/07/25 01:32:02;;;;;;;2.50;1.75;;;;;;;19.66;47.76;100874.94;7398048;19;20022;-66
2022/07/25 01:34:31;;;;;;;2.05;1.85;;;;;;;19.63;48.09;100875.09;7397924;19;20025;-66
2022/07/25 01:36:59;;;;;;;2.08;1.88;;;;;;;19.62;47.74;100878.69;7396198;19;20019;-66
2022/07/25 01:39:30;;;;;;;2.50;2.03;;;;;;;19.60;47.94;100875.28;7397739;19;20026;-66
2022/07/25 01:41:59;;;;;;;2.30;2.10;;;;;;;19.57;47.95;100867.47;7395343;19;20424;-66
2022/07/25 01:44:28;;;;;;;2.40;2.20;;;;;;;19.56;47.86;100867.56;7397549;19;20014;-66
2022/07/25 01:46:56;;;;;;;3.15;2.78;;;;;;;19.53;47.95;100868.59;7395495;19;20074;-66
2022/07/25 01:49:25;;;;;;;4.00;2.65;;;;;;;19.50;48.05;100864.31;7397409;19;20015;-66
2022/07/25 01:51:54;;;;;;;2.50;2.30;;;;;;;19.48;48.00;100860.00;7396940;19;20015;-66
2022/07/25 01:54:22;;;;;;;3.83;2.53;;;;;;;19.45;48.05;100865.50;7396796;19;20375;-66
2022/07/25 01:56:53;;;;;;;2.38;2.13;;;;;;;19.40;48.24;100857.78;7395370;19;20482;-67
2022/07/25 01:59:22;;;;;;;2.20;2.00;;;;;;;19.35;48.41;100851.88;7395606;19;20031;-66
2022/07/25 02:01:50;;;;;;;1.95;1.80;;;;;;;19.30;48.30;100852.13;7396934;19;20081;-66
2022/07/25 02:04:19;;;;;;;2.47;1.88;;;;;;;19.26;48.69;100847.06;7396650;19;20518;-66
2022/07/25 02:06:47;;;;;;;2.70;2.28;;;;;;;19.21;49.19;100848.19;7396184;19;20094;-66
2022/07/25 02:09:16;;;;;;;3.65;2.60;;;;;;;19.15;49.25;100840.56;7396734;19;20019;-66
2022/07/25 02:11:45;;;;;;;2.60;2.33;;;;;;;19.11;50.24;100838.16;7396263;19;20481;-66
2022/07/25 02:14:16;;;;;;;2.80;2.58;;;;;;;19.02;50.47;100836.88;7396587;19;20031;-66
2022/07/25 02:16:44;;;;;;;2.65;2.42;;;;;;;18.96;50.91;100842.53;7395812;19;20018;-66
2022/07/25 02:19:13;;;;;;;3.45;2.50;;;;;;;18.90;50.99;100841.06;7396559;19;20014;-67
2022/07/25 02:21:41;;;;;;;2.58;2.38;;;;;;;18.83;51.24;100839.66;7396299;19;20022;-66
2022/07/25 02:24:10;;;;;;;2.53;2.33;;;;;;;18.79;51.79;100835.44;7397183;19;20014;-67
2022/07/25 02:26:38;;;;;;;3.60;2.70;;;;;;;18.73;51.57;100829.53;7394145;19;20093;-67
2022/07/25 02:29:07;;;;;;;3.53;2.30;;;;;;;18.68;51.77;100833.41;7394448;19;20019;-66
2022/07/25 02:31:38;;;;;;;3.08;2.38;;;;;;;18.63;52.17;100824.81;7393997;19;20434;-66
2022/07/25 02:34:06;;;;;;;3.28;2.63;;;;;;;18.58;52.69;100822.41;7395851;19;20104;-65
2022/07/25 02:36:35;;;;;;;2.47;2.28;;;;;;;18.54;52.46;100820.88;7394390;19;20495;-66
2022/07/25 02:39:04;;;;;;;3.55;2.90;;;;;;;18.51;52.91;100813.91;7394035;19;20166;-66
2022/07/25 02:41:32;;;;;;;3.13;2.83;;;;;;;18.47;52.64;100820.31;7394213;19;20028;-66
2022/07/25 02:44:01;;;;;;;4.88;2.70;;;;;;;18.42;52.94;100813.53;7393986;19;20026;-66
2022/07/25 02:46:38;;;;;;;2.80;2.50;;;;;;;18.36;53.21;100812.94;7393514;19;20018;-65
2022/07/25 02:49:07;;;;;;;9.95;2.80;;;;;;;18.33;53.25;100807.78;7395942;19;20026;-66
2022/07/25 02:51:35;;;;;;;3.47;2.45;;;;;;;18.30;53.67;100807.06;7393634;19;20047;-66
2022/07/25 02:54:04;;;;;;;3.45;2.50;;;;;;;18.26;53.50;100801.09;7394836;19;20482;-66
2022/07/25 02:56:32;;;;;;;3.20;2.78;;;;;;;18.21;53.67;100798.66;7393890;19;20035;-66
2022/07/25 02:59:01;;;;;;;2.60;2.40;;;;;;;18.18;53.86;100800.63;7394511;19;20014;-66
2022/07/25 03:01:29;;;;;;;3.97;2.75;;;;;;;18.13;53.89;100800.84;7393239;19;20022;-66
2022/07/25 03:04:00;;;;;;;4.07;2.60;;;;;;;18.10;54.52;100800.16;7394761;19;20015;-66
2022/07/25 03:06:29;;;;;;;2.40;2.17;;;;;;;18.06;54.35;100794.19;7395151;19;20022;-66
2022/07/25 03:08:57;;;;;;;2.63;2.42;;;;;;;18.03;54.40;100789.88;7393216;19;20014;-66
2022/07/25 03:11:26;;;;;;;3.38;2.60;;;;;;;17.99;54.50;100785.66;7394876;19;20025;-66
2022/07/25 03:13:54;;;;;;;2.95;2.65;;;;;;;17.96;54.61;100788.47;7393047;19;20018;-67
2022/07/25 03:16:23;;;;;;;3.58;2.92;;;;;;;17.96;54.55;100783.19;7394257;19;20035;-66
2022/07/25 03:18:52;;;;;;;6.03;3.33;;;;;;;17.96;54.44;100784.94;7392387;19;20473;-66
2022/07/25 03:21:23;;;;;;;3.25;2.35;;;;;;;17.97;54.12;100778.72;7394591;19;20384;-67
2022/07/25 03:23:51;;;;;;;3.22;2.55;;;;;;;17.98;54.05;100785.75;7395086;19;20036;-66
2022/07/25 03:26:20;;;;;;;2.35;2.10;;;;;;;17.98;53.63;100773.31;7394290;19;20022;-66
2022/07/25 03:28:48;;;;;;;3.40;2.83;;;;;;;18.00;53.46;100775.91;7392549;19;20082;-65
2022/07/25 03:31:17;;;;;;;2.60;2.20;;;;;;;18.01;53.27;100767.88;7394228;19;20082;-66
2022/07/25 03:33:52;;;;;;;3.95;2.25;;;;;;;18.01;53.12;100765.22;7394161;19;20011;-66
2022/07/25 03:36:23;;;;;;;3.33;2.40;;;;;;;18.02;53.04;100763.41;7394025;19;20018;-65
2022/07/25 03:38:51;;;;;;;3.80;2.40;;;;;;;18.02;52.92;100756.31;7396821;19;20095;-66
2022/07/25 03:41:20;;;;;;;2.70;2.28;;;;;;;18.03;52.61;100758.03;7399110;19;20099;-66
2022/07/25 03:43:48;;;;;;;4.00;2.47;;;;;;;18.03;52.59;100757.16;7401523;19;20035;-66
2022/07/25 03:46:17;;;;;;;2.85;2.40;;;;;;;18.04;52.46;100756.22;7398290;19;20433;-66
2022/07/25 03:48:45;;;;;;;2.22;2.03;;;;;;;18.02;52.34;100751.00;7398393;19;20513;-67
2022/07/25 03:51:14;;;;;;;2.90;2.50;;;;;;;18.04;52.62;100754.41;7401094;19;20462;-66
2022/07/25 03:56:26;;;;;;;4.07;2.25;;;;;;;18.06;52.25;100741.09;7400664;19;20017;-66
2022/07/25 03:58:54;;;;;;;4.40;2.75;;;;;;;18.07;51.97;100750.75;7398098;19;20026;-65
2022/07/25 04:01:23;;;;;;;2.75;2.45;;;;;;;18.07;52.18;100742.78;7397530;19;20424;-66
2022/07/25 04:03:52;;;;;;;4.25;2.60;;;;;;;18.09;52.16;100743.56;7401323;19;20018;-66
2022/07/25 04:06:22;;;;;;;3.83;2.85;;;;;;;18.09;52.39;100743.56;7397251;19;20019;-66
2022/07/25 04:08:54;;;;;;;3.22;2.30;;;;;;;18.09;52.23;100732.94;7397676;19;20038;-67
2022/07/25 04:11:24;;;;;;;3.83;2.45;;;;;;;18.11;52.18;100738.16;7400030;19;20378;-66
2022/07/25 04:13:53;;;;;;;4.45;3.67;;;;;;;18.12;52.02;100734.56;7399676;19;20510;-66
2022/07/25 04:16:21;;;;;;;6.20;3.80;;;;;;;18.14;52.24;100735.34;7400299;19;20021;-67
2022/07/25 04:18:50;;;;;;;7.57;5.97;;;;;;;18.16;51.86;100737.00;7397640;19;20019;-67
2022/07/25 04:21:19;;;;;;;5.05;2.78;;;;;;;18.18;52.19;100736.91;7399437;19;20018;-67
2022/07/25 04:23:47;;;;;;;11.90;6.43;;;;;;;18.20;52.11;100730.56;7397953;19;20388;-66
2022/07/25 04:26:19;;;;;;;4.10;3.28;;;;;;;18.23;51.72;100729.53;7399686;19;20098;-66
2022/07/25 04:28:47;;;;;;;12.88;8.95;;;;;;;18.26;51.76;100736.47;7397294;19;20025;-67
2022/07/25 04:31:16;;;;;;;10.73;5.75;;;;;;;18.28;52.19;100730.16;7399089;19;20017;-65
2022/07/25 04:33:45;;;;;;;5.60;4.13;;;;;;;18.30;51.76;100733.59;7395994;19;20014;-66
2022/07/25 04:36:13;;;;;;;4.70;4.20;;;;;;;18.32;51.96;100731.69;7399139;19;20036;-67
2022/07/25 04:38:42;;;;;;;3.70;2.70;;;;;;;18.34;51.97;100726.31;7396849;19;20083;-67
2022/07/25 04:41:11;;;;;;;8.20;4.10;;;;;;;18.36;52.21;100722.63;7396603;19;20098;-66
2022/07/25 04:43:42;;;;;;;3.20;2.80;;;;;;;18.38;51.79;100720.72;7399049;19;20039;-67
2022/07/25 04:46:11;;;;;;;5.05;2.58;;;;;;;18.40;51.74;100713.56;7396916;19;20083;-66
2022/07/25 04:48:39;;;;;;;5.15;3.63;;;;;;;18.42;51.97;100709.97;7395942;19;20018;-67
2022/07/25 04:51:09;;;;;;;3.97;2.78;;;;;;;18.45;52.02;100701.81;7398879;19;20018;-67
2022/07/25 04:53:37;;;;;;;4.05;3.30;;;;;;;18.49;51.82;100706.03;7396285;19;20022;-66
2022/07/25 04:56:07;;;;;;;4.25;3.20;;;;;;;18.52;51.96;100706.69;7396072;19;20024;-66
2022/07/25 04:58:36;;;;;;;4.30;3.85;;;;;;;18.55;51.74;100701.22;7396096;19;20018;-67
2022/07/25 05:01:07;;;;;;;5.30;4.72;;;;;;;18.59;51.87;100698.38;7398229;19;20018;-66
2022/07/25 05:03:36;;;;;;;5.28;3.45;;;;;;;18.63;52.25;100695.47;7396731;19;20022;-66
2022/07/25 05:06:04;;;;;;;4.30;3.15;;;;;;;18.67;51.91;100697.00;7398058;19;20082;-67
2022/07/25 05:08:33;;;;;;;3.67;3.05;;;;;;;18.71;51.82;100690.56;7395950;19;20026;-67
2022/07/25 05:11:01;;;;;;;6.85;2.83;;;;;;;18.78;51.80;100692.88;7398227;19;20032;-66
2022/07/25 05:13:30;;;;;;;3.58;3.28;;;;;;;18.82;51.87;100683.81;7397782;19;20023;-66
2022/07/25 05:15:58;;;;;;;4.22;3.80;;;;;;;18.87;52.21;100684.41;7398435;19;20018;-66
2022/07/25 05:18:29;;;;;;;4.53;3.05;;;;;;;18.92;52.06;100677.03;7396277;19;20035;-67
2022/07/25 05:20:58;;;;;;;3.67;3.22;;;;;;;18.98;52.24;100673.16;7396189;19;20038;-66
2022/07/25 05:23:26;;;;;;;6.13;3.25;;;;;;;19.02;51.98;100667.56;7397150;19;20032;-66
2022/07/25 05:25:55;;;;;;;6.20;3.75;;;;;;;19.09;51.95;100656.59;7395239;19;20027;-65
2022/07/25 05:28:23;;;;;;;4.60;3.67;;;;;;;19.16;51.77;100661.44;7395669;19;20509;-66
2022/07/25 05:30:52;;;;;;;4.57;3.95;;;;;;;19.23;52.23;100658.44;7395914;19;20026;-66
2022/07/25 05:33:20;;;;;;;5.75;3.60;;;;;;;19.26;51.97;100656.44;7395826;19;20022;-66
2022/07/25 05:35:51;;;;;;;4.53;4.05;;;;;;;19.34;52.21;100656.81;7397434;19;20081;-66
2022/07/25 05:38:20;;;;;;;5.55;4.55;;;;;;;19.42;52.35;100655.53;7395271;19;20032;-66
2022/07/25 05:40:50;;;;;;;4.50;4.10;;;;;;;19.48;52.31;100658.66;7394513;19;20007;-66
2022/07/25 05:43:19;;;;;;;4.90;4.40;;;;;;;19.56;52.33;100652.88;7395269;19;20014;-65
2022/07/25 05:45:48;;;;;;;4.40;4.00;;;;;;;19.64;52.11;100652.41;7397107;19;20031;-65
2022/07/25 05:48:17;;;;;;;4.13;3.72;;;;;;;19.70;51.98;100647.56;7395190;19;20021;-65
2022/07/25 05:50:46;;;;;;;4.25;3.78;;;;;;;19.78;51.96;100651.56;7396361;19;20376;-66
2022/07/25 05:53:17;;;;;;;6.07;4.45;;;;;;;19.87;51.92;100648.34;7394791;19;20018;-64
2022/07/25 05:55:46;;;;;;;4.93;4.20;;;;;;;19.94;51.99;100639.03;7395266;19;20018;-66
2022/07/25 05:58:15;;;;;;;7.10;4.78;;;;;;;20.02;52.18;100644.72;7395201;19;20014;-68
2022/07/25 06:00:43;;;;;;;4.95;4.32;;;;;;;20.10;52.19;100641.56;7395394;19;20026;-69
2022/07/25 06:03:12;;;;;;;10.27;5.50;;;;;;;20.19;52.51;100637.47;7396320;19;20077;-68
2022/07/25 06:05:40;;;;;;;7.22;4.30;;;;;;;20.28;52.41;100641.34;7395820;19;20074;-69
2022/07/25 06:08:09;;;;;;;5.68;4.18;;;;;;;20.37;52.70;100626.59;7394085;19;20018;-68
2022/07/25 06:10:40;;;;;;;5.18;3.97;;;;;;;20.47;52.70;100631.22;7394477;19;20119;-70
2022/07/25 06:13:09;;;;;;;4.88;4.38;;;;;;;20.57;52.54;100626.13;7396098;19;20082;-70
2022/07/25 06:15:37;;;;;;;6.35;5.35;;;;;;;20.63;52.35;100620.41;7395611;19;20485;-70
2022/07/25 06:18:06;;;;;;;6.13;4.68;;;;;;;20.76;52.61;100615.16;7394171;19;20036;-69
2022/07/25 06:20:34;;;;;;;6.45;5.13;;;;;;;20.86;52.41;100610.03;7395189;19;20091;-70
2022/07/25 06:23:03;;;;;;;6.82;5.10;;;;;;;20.97;52.78;100606.66;7393329;19;20339;-68
2022/07/25 06:25:32;;;;;;;7.53;6.60;;;;;;;21.08;52.39;100614.78;7395252;19;20026;-69
2022/07/25 06:28:03;;;;;;;7.80;5.90;;;;;;;21.19;52.76;100599.84;7395090;19;20018;-69
2022/07/25 06:30:32;;;;;;;5.38;4.88;;;;;;;21.28;52.38;100594.75;7395939;19;20011;-69
2022/07/25 06:33:00;;;;;;;6.47;5.70;;;;;;;21.40;52.58;100597.53;7393334;19;20034;-69
2022/07/25 06:35:29;;;;;;;5.50;4.93;;;;;;;21.52;52.09;100595.81;7396028;19;20035;-69
2022/07/25 06:37:58;;;;;;;6.18;5.57;;;;;;;21.62;51.91;100595.09;7394174;19;20019;-70
2022/07/25 06:40:26;;;;;;;6.25;5.63;;;;;;;21.75;51.71;100592.41;7393223;19;20014;-69
2022/07/25 06:43:11;;;;;;;5.75;5.22;;;;;;;21.90;51.79;100584.22;7392427;19;20090;-70
2022/07/25 06:45:41;;;;;;;7.25;5.50;;;;;;;22.04;51.59;100585.91;7394100;19;20078;-70
2022/07/25 06:48:10;;;;;;;7.18;5.65;;;;;;;22.19;50.76;100579.47;7395217;19;20014;-70
2022/07/25 06:50:38;;;;;;;6.20;5.63;;;;;;;22.34;51.00;100580.13;7394320;19;20518;-69
2022/07/25 06:53:07;;;;;;;6.70;5.95;;;;;;;22.49;50.13;100574.66;7393519;19;20086;-69
2022/07/25 06:55:36;;;;;;;8.02;5.78;;;;;;;22.63;49.92;100570.94;7394613;19;20027;-69
2022/07/25 06:58:07;;;;;;;7.60;5.60;;;;;;;22.77;49.18;100571.63;7392928;19;20022;-69
2022/07/25 07:00:35;;;;;;;7.20;5.72;;;;;;;22.92;48.63;100566.91;7394530;19;20021;-70
2022/07/25 07:03:04;;;;;;;9.05;5.93;;;;;;;23.08;48.73;100573.75;7393282;19;20019;-70
2022/07/25 07:05:35;;;;;;;7.75;5.72;;;;;;;23.22;48.11;100568.19;7394072;19;20031;-70
2022/07/25 07:08:04;;;;;;;6.93;5.38;;;;;;;23.36;47.70;100566.28;7393379;19;20006;-69
2022/07/25 07:10:33;;;;;;;5.85;5.22;;;;;;;23.51;47.84;100566.91;7394561;19;20481;-70
2022/07/25 07:13:10;;;;;;;7.18;5.65;;;;;;;23.65;46.76;100560.44;7401406;19;20018;-69
2022/07/25 07:15:40;;;;;;;6.43;5.82;;;;;;;23.76;47.14;100555.06;7400858;19;20108;-70
2022/07/25 07:18:08;;;;;;;6.82;6.13;;;;;;;23.89;46.85;100550.41;7398720;19;20032;-71
2022/07/25 07:20:37;;;;;;;6.70;5.90;;;;;;;24.01;46.71;100553.97;7401698;19;20042;-69
2022/07/25 07:23:06;;;;;;;8.35;6.20;;;;;;;24.15;45.97;100549.28;7402203;19;20023;-69
2022/07/25 07:25:35;;;;;;;10.07;7.47;;;;;;;24.26;46.32;100533.16;7401580;19;20018;-68
2022/07/25 07:28:03;;;;;;;8.80;7.15;;;;;;;24.38;45.52;100534.00;7400096;19;20079;-69
2022/07/25 07:30:35;;;;;;;6.35;5.85;;;;;;;24.49;45.35;100530.41;7398570;19;20031;-69
2022/07/25 07:33:03;;;;;;;7.07;6.35;;;;;;;24.64;45.50;100536.31;7398680;19;20015;-69
2022/07/25 07:35:32;;;;;;;7.05;6.20;;;;;;;24.77;45.15;100542.38;7400275;19;20015;-69
2022/07/25 07:38:00;;;;;;;7.53;5.75;;;;;;;24.88;44.58;100528.88;7397854;19;20022;-70
2022/07/25 07:40:29;;;;;;;9.80;5.97;;;;;;;25.00;44.98;100531.50;7401111;19;20015;-70
2022/07/25 07:43:01;;;;;;;6.43;5.82;;;;;;;25.15;43.99;100540.03;7398265;19;20024;-70
2022/07/25 07:45:29;;;;;;;10.25;6.95;;;;;;;25.25;43.70;100524.84;7401171;19;20082;-70
2022/07/25 07:48:00;;;;;;;6.00;5.47;;;;;;;25.40;43.08;100527.19;7397811;19;20019;-69
2022/07/25 07:50:30;;;;;;;6.47;5.82;;;;;;;25.51;43.12;100521.72;7398580;19;20094;-70
2022/07/25 07:52:59;;;;;;;6.80;6.10;;;;;;;25.62;42.84;100521.63;7400892;19;20043;-70
2022/07/25 07:58:09;;;;;;;6.80;5.72;;;;;;;25.86;42.15;100529.31;7398646;19;20011;-70
2022/07/25 08:00:38;;;;;;;7.10;6.45;;;;;;;25.98;41.80;100526.50;7400247;19;20019;-69
2022/07/25 08:03:10;;;;;;;8.38;6.90;;;;;;;26.10;41.52;100521.91;7400116;19;20018;-69
2022/07/25 08:05:41;;;;;;;14.43;7.00;;;;;;;26.19;41.76;100521.03;7397373;19;20485;-69
2022/07/25 08:08:11;;;;;;;7.82;5.80;;;;;;;26.27;41.41;100512.28;7398258;19;20498;-69
2022/07/25 08:10:42;;;;;;;7.60;6.72;;;;;;;26.37;41.03;100514.97;7400873;19;20023;-69
2022/07/25 08:13:15;;;;;;;7.95;6.30;;;;;;;26.47;41.16;100521.19;7397460;19;20010;-69
2022/07/25 08:15:45;;;;;;;7.35;6.65;;;;;;;26.57;40.94;100508.56;7400598;19;20018;-69
2022/07/25 08:18:17;;;;;;;12.30;6.95;;;;;;;26.66;40.60;100514.94;7397615;19;20549;-68
2022/07/25 08:20:45;;;;;;;10.63;7.00;;;;;;;26.76;40.57;100507.72;7397104;19;20022;-68
2022/07/25 08:23:14;;;;;;;7.40;6.70;;;;;;;26.84;40.29;100509.69;7398215;19;20074;-70
2022/07/25 08:25:43;;;;;;;7.50;6.75;;;;;;;26.94;39.94;100501.59;7399326;19;20019;-69
2022/07/25 08:28:12;;;;;;;8.10;7.40;;;;;;;27.02;39.96;100501.72;7398129;19;20031;-69
2022/07/25 08:30:42;;;;;;;9.27;7.55;;;;;;;27.10;39.56;100496.44;7396353;19;20018;-69
2022/07/25 08:33:14;;;;;;;8.02;7.22;;;;;;;27.19;39.86;100501.94;7396717;19;20031;-69
2022/07/25 08:35:48;;;;;;;18.33;8.20;;;;;;;27.26;39.00;100506.59;7396435;19;20027;-69
2022/07/25 08:38:17;;;;;;;8.90;7.30;;;;;;;27.34;39.60;100497.75;7397322;19;20031;-69
2022/07/25 08:40:46;;;;;;;9.07;6.93;;;;;;;27.44;39.57;100500.44;7398922;19;20026;-69
2022/07/25 08:43:15;;;;;;;11.50;7.65;;;;;;;27.51;39.33;100498.81;7397177;19;20051;-70
2022/07/25 08:45:47;;;;;;;9.02;8.13;;;;;;;27.59;39.22;100498.09;7399241;19;20026;-70
2022/07/25 08:48:18;;;;;;;8.90;7.57;;;;;;;27.64;39.46;100488.56;7396948;19;20409;-70
2022/07/25 08:50:50;;;;;;;8.70;7.90;;;;;;;27.72;38.33;100487.78;7398847;19;20035;-69
2022/07/25 08:53:20;;;;;;;8.30;7.53;;;;;;;27.80;38.52;100487.03;7395974;19;20087;-70
2022/07/25 08:55:49;;;;;;;8.02;7.32;;;;;;;27.86;38.81;100483.72;7398787;19;20014;-68
2022/07/25 08:58:19;;;;;;;8.57;7.72;;;;;;;27.95;38.56;100481.97;7395849;19;20014;-70
2022/07/25 09:00:49;;;;;;;8.52;7.57;;;;;;;28.04;38.60;100472.13;7398367;19;20372;-69
2022/07/25 09:03:17;;;;;;;8.35;7.65;;;;;;;28.12;38.89;100470.38;7398189;19;20026;-69
2022/07/25 09:05:48;;;;;;;10.50;8.23;;;;;;;28.22;38.73;100464.91;7397929;19;20482;-69
2022/07/25 09:08:18;;;;;;;8.38;7.43;;;;;;;28.32;38.27;100469.34;7395627;19;20380;-69
2022/07/25 09:10:49;;;;;;;8.85;8.02;;;;;;;28.42;38.48;100465.56;7398532;19;20022;-69
2022/07/25 09:13:18;;;;;;;8.40;7.50;;;;;;;28.53;37.84;100460.91;7397468;19;20027;-69
2022/07/25 09:15:48;;;;;;;8.85;7.78;;;;;;;28.61;37.96;100464.53;7397518;19;20031;-69
2022/07/25 09:18:19;;;;;;;8.35;7.45;;;;;;;28.70;37.54;100462.75;7395285;19;20022;-69
2022/07/25 09:20:52;;;;;;;9.32;8.27;;;;;;;28.76;37.15;100456.72;7395504;19;20026;-69
2022/07/25 09:23:30;;;;;;;8.90;8.10;;;;;;;28.84;37.46;100452.34;7397185;19;20019;-69
2022/07/25 09:26:04;;;;;;;9.55;8.65;;;;;;;28.89;37.18;100448.19;7397768;19;20023;-70
2022/07/25 09:28:33;;;;;;;9.07;8.18;;;;;;;28.99;37.10;100445.38;7395985;19;20021;-70
2022/07/25 09:31:03;;;;;;;10.10;7.68;;;;;;;29.08;36.92;100451.66;7395680;19;20058;-70
2022/07/25 09:33:33;;;;;;;8.80;7.90;;;;;;;29.16;36.49;100437.34;7397397;19;20014;-68
2022/07/25 09:36:12;;;;;;;8.40;7.55;;;;;;;29.23;36.53;100430.25;7395081;19;20039;-69
2022/07/25 09:38:41;;;;;;;8.35;7.40;;;;;;;29.30;36.27;100427.81;7395119;19;20081;-68
2022/07/25 09:41:09;;;;;;;8.02;7.25;;;;;;;29.40;36.34;100425.81;7397402;19;20070;-68
2022/07/25 09:43:52;;;;;;;9.63;7.40;;;;;;;29.51;35.94;100430.03;7394588;19;20014;-69
2022/07/25 09:46:32;;;;;;;8.15;7.45;;;;;;;29.60;35.54;100426.38;7396580;19;20015;-69
2022/07/25 09:49:01;;;;;;;7.68;6.93;;;;;;;29.69;35.87;100421.81;7396918;19;20493;-70
2022/07/25 09:51:34;;;;;;;9.52;7.55;;;;;;;29.77;35.57;100402.06;7397235;19;20035;-69
2022/07/25 09:54:03;;;;;;;8.88;6.78;;;;;;;29.83;35.78;100407.63;7396656;19;20485;-69
2022/07/25 09:56:31;;;;;;;6.43;5.82;;;;;;;29.92;35.69;100399.56;7396723;19;20022;-68
2022/07/25 09:59:00;;;;;;;7.57;6.78;;;;;;;30.02;34.92;100403.78;7395262;19;20015;-69
2022/07/25 10:01:35;;;;;;;9.32;7.10;;;;;;;30.11;34.67;100407.34;7396827;19;20024;-69
2022/07/25 10:04:14;;;;;;;7.97;7.13;;;;;;;30.17;34.39;100397.72;7396683;19;20365;-70
2022/07/25 10:06:53;;;;;;;7.90;7.15;;;;;;;30.28;34.83;100391.94;7395901;19;20024;-70
2022/07/25 10:09:22;;;;;;;8.13;6.93;;;;;;;30.38;34.51;100395.31;7394620;19;20089;-69
2022/07/25 10:12:07;;;;;;;8.80;6.97;;;;;;;30.49;34.00;100391.41;7396317;19;20014;-69
2022/07/25 10:14:36;;;;;;;9.50;7.30;;;;;;;30.56;34.21;100386.19;7396500;19;20021;-70
2022/07/25 10:17:06;;;;;;;7.80;6.63;;;;;;;30.65;33.42;100378.88;7395435;19;20018;-69
2022/07/25 10:19:42;;;;;;;7.55;6.15;;;;;;;30.73;33.26;100368.00;7394161;19;20025;-69
2022/07/25 10:22:14;;;;;;;7.47;6.78;;;;;;;30.80;33.31;100357.31;7396394;19;20030;-70
2022/07/25 10:24:47;;;;;;;7.75;6.97;;;;;;;30.90;32.63;100359.81;7396047;19;20073;-70
2022/07/25 10:27:22;;;;;;;7.47;6.88;;;;;;;30.98;32.58;100347.06;7393768;19;20047;-69
2022/07/25 10:29:54;;;;;;;6.50;5.90;;;;;;;31.08;32.32;100356.91;7393279;19;20015;-70
2022/07/25 10:32:28;;;;;;;8.13;6.33;;;;;;;31.15;31.72;100336.19;7395020;19;20510;-69
2022/07/25 10:34:56;;;;;;;7.07;6.25;;;;;;;31.24;31.97;100339.69;7395127;19;20011;-67
2022/07/25 10:37:31;;;;;;;7.47;6.15;;;;;;;31.35;31.29;100329.31;7394480;19;20036;-67
2022/07/25 10:39:59;;;;;;;8.10;7.30;;;;;;;31.46;31.84;100316.34;7393449;19;20014;-68
2022/07/25 10:42:34;;;;;;;6.78;6.18;;;;;;;31.57;31.54;100336.75;7394131;19;20024;-68
2022/07/25 10:45:08;;;;;;;7.18;6.53;;;;;;;31.63;31.15;100328.78;7393834;19;20050;-68
2022/07/25 10:47:41;;;;;;;7.93;7.22;;;;;;;31.73;30.73;100322.25;7392792;19;20010;-68
2022/07/25 10:50:13;;;;;;;7.82;7.13;;;;;;;31.80;30.57;100315.09;7392735;19;20015;-67
2022/07/25 10:52:46;;;;;;;6.38;5.82;;;;;;;31.87;29.99;100305.16;7394283;19;20506;-69
2022/07/25 10:55:24;;;;;;;6.95;6.10;;;;;;;31.96;30.18;100304.09;7394434;19;20007;-68
2022/07/25 10:58:02;;;;;;;6.75;6.07;;;;;;;32.04;29.59;100302.28;7393621;19;20368;-68
2022/07/25 11:00:31;;;;;;;8.65;6.60;;;;;;;32.13;30.12;100312.06;7393336;19;20014;-69
2022/07/25 11:03:00;;;;;;;9.23;6.45;;;;;;;32.22;29.76;100302.81;7391770;19;20018;-68
2022/07/25 11:05:28;;;;;;;7.40;6.57;;;;;;;32.32;29.18;100305.25;7393858;19;20488;-69
2022/07/25 11:08:00;;;;;;;6.93;6.28;;;;;;;32.37;29.02;100293.84;7393114;19;20365;-70
2022/07/25 11:10:29;;;;;;;6.80;6.15;;;;;;;32.40;29.05;100294.28;7393596;19;20035;-69
2022/07/25 11:12:57;;;;;;;7.32;6.20;;;;;;;32.44;29.32;100284.78;7393071;19;20014;-66
2022/07/25 11:15:27;;;;;;;7.57;6.43;;;;;;;32.49;29.03;100286.91;7392113;19;20596;-67
2022/07/25 11:17:56;;;;;;;9.43;6.72;;;;;;;32.57;28.65;100281.38;7392995;19;20022;-66
2022/07/25 11:20:25;;;;;;;8.52;7.15;;;;;;;32.64;28.69;100276.03;7391832;19;20481;-66
2022/07/25 11:22:55;;;;;;;6.40;5.80;;;;;;;32.72;28.35;100278.63;7391964;19;20042;-66
2022/07/25 11:25:26;;;;;;;6.47;5.93;;;;;;;32.80;28.39;100273.13;7393462;19;20011;-66
2022/07/25 11:27:59;;;;;;;7.05;6.10;;;;;;;32.91;28.30;100274.50;7390189;19;20019;-65
2022/07/25 11:30:29;;;;;;;6.85;6.15;;;;;;;33.05;27.56;100258.31;7393421;19;20007;-65
2022/07/25 11:33:00;;;;;;;7.15;5.93;;;;;;;33.17;27.75;100253.25;7393356;19;20086;-66
2022/07/25 11:35:32;;;;;;;6.18;5.63;;;;;;;33.25;27.71;100245.78;7391475;19;20015;-66
2022/07/25 11:38:02;;;;;;;6.53;5.93;;;;;;;33.37;27.53;100246.13;7391191;19;20018;-67
2022/07/25 11:40:33;;;;;;;6.90;6.18;;;;;;;33.51;26.81;100248.97;7392856;19;20402;-67